sensor_id;sensor_type;location;lat;lon;timestamp;P1;durP1;ratioP1;P2;durP2;ratioP2
30080;SDS011;16902;50.816;12.828;2023-06-26T00:03:38;5.63;;;5.22;;
30080;SDS011;16902;50.816;12.828;2023-06-26T00:08:40;5.45;;;5.15;;
30080;SDS011;16902;50.816;12.828;2023-06-26T00:13:42;5.43;;;5.13;;
30080;SDS011;16902;50.816;12.828;2023-06-26T00:18:43;5.72;;;5.43;;
30080;SDS011;16902;50.816;12.828;2023-06-26T00:23:45;6.10;;;5.65;;
30080;SDS011;16902;50.816;12.828;2023-06-26T00:28:47;5.10;;;4.80;;
30080;SDS011;16902;50.816;12.828;2023-06-26T00:33:49;5.80;;;5.50;;
30080;SDS011;16902;50.816;12.828;2023-06-26T00:38:50;5.45;;;5.15;;
30080;SDS011;16902;50.816;12.828;2023-06-26T00:43:52;5.63;;;5.38;;
30080;SDS011;16902;50.816;12.828;2023-06-26T00:48:54;5.72;;;5.32;;
30080;SDS011;16902;50.816;12.828;2023-06-26T00:53:57;5.72;;;5.43;;
30080;SDS011;16902;50.816;12.828;2023-06-26T00:58:59;6.13;;;5.78;;
30080;SDS011;16902;50.816;12.828;2023-06-26T01:04:00;5.72;;;5.43;;
30080;SDS011;16902;50.816;12.828;2023-06-26T01:09:03;5.75;;;5.35;;
30080;SDS011;16902;50.816;12.828;2023-06-26T01:14:05;5.90;;;5.60;;
30080;SDS011;16902;50.816;12.828;2023-06-26T01:19:09;5.32;;;4.93;;
30080;SDS011;16902;50.816;12.828;2023-06-26T01:24:17;5.50;;;5.20;;
30080;SDS011;16902;50.816;12.828;2023-06-26T01:29:25;5.30;;;5.00;;
30080;SDS011;16902;50.816;12.828;2023-06-26T01:34:27;5.35;;;5.00;;
30080;SDS011;16902;50.816;12.828;2023-06-26T01:39:29;5.13;;;4.82;;
30080;SDS011;16902;50.816;12.828;2023-06-26T01:44:32;5.80;;;5.40;;
30080;SDS011;16902;50.816;12.828;2023-06-26T01:54:56;5.65;;;5.15;;
30080;SDS011;16902;50.816;12.828;2023-06-26T02:00:04;6.18;;;5.80;;
30080;SDS011;16902;50.816;12.828;2023-06-26T02:05:14;5.90;;;5.50;;
30080;SDS011;16902;50.816;12.828;2023-06-26T02:10:17;5.18;;;4.88;;
30080;SDS011;16902;50.816;12.828;2023-06-26T02:15:19;4.85;;;4.55;;
30080;SDS011;16902;50.816;12.828;2023-06-26T02:20:20;5.10;;;4.82;;
30080;SDS011;16902;50.816;12.828;2023-06-26T02:25:22;5.32;;;5.03;;
30080;SDS011;16902;50.816;12.828;2023-06-26T02:30:26;5.82;;;5.43;;
30080;SDS011;16902;50.816;12.828;2023-06-26T02:35:28;5.55;;;5.15;;
30080;SDS011;16902;50.816;12.828;2023-06-26T02:40:29;5.32;;;4.93;;
30080;SDS011;16902;50.816;12.828;2023-06-26T02:45:32;4.88;;;4.68;;
30080;SDS011;16902;50.816;12.828;2023-06-26T02:50:34;5.05;;;4.75;;
30080;SDS011;16902;50.816;12.828;2023-06-26T02:55:45;6.53;;;5.75;;
30080;SDS011;16902;50.816;12.828;2023-06-26T03:00:49;5.40;;;4.90;;
30080;SDS011;16902;50.816;12.828;2023-06-26T03:05:52;4.90;;;4.60;;
30080;SDS011;16902;50.816;12.828;2023-06-26T03:10:54;5.43;;;5.03;;
30080;SDS011;16902;50.816;12.828;2023-06-26T03:15:56;5.57;;;5.18;;
30080;SDS011;16902;50.816;12.828;2023-06-26T03:20:58;5.20;;;4.90;;
30080;SDS011;16902;50.816;12.828;2023-06-26T03:26:01;5.97;;;5.50;;
30080;SDS011;16902;50.816;12.828;2023-06-26T03:31:08;5.40;;;5.00;;
30080;SDS011;16902;50.816;12.828;2023-06-26T03:36:10;5.57;;;5.25;;
30080;SDS011;16902;50.816;12.828;2023-06-26T03:41:12;5.68;;;5.25;;
30080;SDS011;16902;50.816;12.828;2023-06-26T03:46:15;6.22;;;5.72;;
30080;SDS011;16902;50.816;12.828;2023-06-26T03:51:17;5.18;;;4.88;;
30080;SDS011;16902;50.816;12.828;2023-06-26T03:56:19;5.68;;;5.20;;
30080;SDS011;16902;50.816;12.828;2023-06-26T04:01:22;5.18;;;4.88;;
30080;SDS011;16902;50.816;12.828;2023-06-26T04:06:24;5.05;;;4.75;;
30080;SDS011;16902;50.816;12.828;2023-06-26T04:11:27;4.97;;;4.68;;
30080;SDS011;16902;50.816;12.828;2023-06-26T04:16:29;5.47;;;5.18;;
30080;SDS011;16902;50.816;12.828;2023-06-26T04:21:31;5.93;;;5.55;;
30080;SDS011;16902;50.816;12.828;2023-06-26T04:26:33;5.63;;;5.32;;
30080;SDS011;16902;50.816;12.828;2023-06-26T04:31:35;5.78;;;5.47;;
30080;SDS011;16902;50.816;12.828;2023-06-26T04:36:36;5.32;;;5.05;;
30080;SDS011;16902;50.816;12.828;2023-06-26T04:41:40;6.75;;;6.35;;
30080;SDS011;16902;50.816;12.828;2023-06-26T04:46:42;6.05;;;5.65;;
30080;SDS011;16902;50.816;12.828;2023-06-26T04:51:44;6.28;;;5.93;;
30080;SDS011;16902;50.816;12.828;2023-06-26T04:56:45;6.20;;;5.90;;
30080;SDS011;16902;50.816;12.828;2023-06-26T05:01:48;6.78;;;6.28;;
30080;SDS011;16902;50.816;12.828;2023-06-26T05:06:50;5.32;;;5.03;;
30080;SDS011;16902;50.816;12.828;2023-06-26T05:11:52;5.90;;;5.50;;
30080;SDS011;16902;50.816;12.828;2023-06-26T05:16:53;6.57;;;6.07;;
30080;SDS011;16902;50.816;12.828;2023-06-26T05:21:55;5.93;;;5.57;;
30080;SDS011;16902;50.816;12.828;2023-06-26T05:26:57;6.13;;;5.80;;
30080;SDS011;16902;50.816;12.828;2023-06-26T05:31:59;6.57;;;6.15;;
30080;SDS011;16902;50.816;12.828;2023-06-26T05:37:01;7.03;;;6.55;;
30080;SDS011;16902;50.816;12.828;2023-06-26T05:42:03;7.80;;;7.25;;
30080;SDS011;16902;50.816;12.828;2023-06-26T05:47:05;7.18;;;6.78;;
30080;SDS011;16902;50.816;12.828;2023-06-26T05:52:07;7.70;;;7.20;;
30080;SDS011;16902;50.816;12.828;2023-06-26T05:57:09;7.72;;;7.25;;
30080;SDS011;16902;50.816;12.828;2023-06-26T06:02:13;8.95;;;8.48;;
30080;SDS011;16902;50.816;12.828;2023-06-26T06:07:15;10.32;;;9.82;;
30080;SDS011;16902;50.816;12.828;2023-06-26T06:12:17;13.20;;;12.60;;
30080;SDS011;16902;50.816;12.828;2023-06-26T06:17:22;13.95;;;13.18;;
30080;SDS011;16902;50.816;12.828;2023-06-26T06:22:24;14.60;;;13.60;;
30080;SDS011;16902;50.816;12.828;2023-06-26T06:27:26;13.50;;;12.90;;
30080;SDS011;16902;50.816;12.828;2023-06-26T06:32:28;12.98;;;12.38;;
30080;SDS011;16902;50.816;12.828;2023-06-26T06:37:30;14.00;;;13.27;;
30080;SDS011;16902;50.816;12.828;2023-06-26T06:42:33;14.30;;;13.60;;
30080;SDS011;16902;50.816;12.828;2023-06-26T06:47:35;15.68;;;14.77;;
30080;SDS011;16902;50.816;12.828;2023-06-26T06:52:37;15.13;;;14.43;;
30080;SDS011;16902;50.816;12.828;2023-06-26T06:57:39;15.43;;;14.70;;
30080;SDS011;16902;50.816;12.828;2023-06-26T07:02:43;15.32;;;14.63;;
30080;SDS011;16902;50.816;12.828;2023-06-26T07:07:46;16.10;;;15.20;;
30080;SDS011;16902;50.816;12.828;2023-06-26T07:12:47;16.30;;;15.50;;
30080;SDS011;16902;50.816;12.828;2023-06-26T07:17:49;15.95;;;15.15;;
30080;SDS011;16902;50.816;12.828;2023-06-26T07:22:52;16.08;;;15.27;;
30080;SDS011;16902;50.816;12.828;2023-06-26T07:27:54;15.75;;;15.05;;
30080;SDS011;16902;50.816;12.828;2023-06-26T07:32:56;15.30;;;14.60;;
30080;SDS011;16902;50.816;12.828;2023-06-26T07:37:57;15.70;;;15.00;;
30080;SDS011;16902;50.816;12.828;2023-06-26T07:42:59;16.63;;;15.82;;
30080;SDS011;16902;50.816;12.828;2023-06-26T07:48:01;16.08;;;15.27;;
30080;SDS011;16902;50.816;12.828;2023-06-26T07:53:04;15.75;;;15.00;;
30080;SDS011;16902;50.816;12.828;2023-06-26T07:58:07;15.88;;;15.07;;
30080;SDS011;16902;50.816;12.828;2023-06-26T08:03:09;16.48;;;15.65;;
30080;SDS011;16902;50.816;12.828;2023-06-26T08:08:25;15.98;;;15.25;;
30080;SDS011;16902;50.816;12.828;2023-06-26T08:13:27;16.25;;;15.45;;
30080;SDS011;16902;50.816;12.828;2023-06-26T08:18:29;16.20;;;15.43;;
30080;SDS011;16902;50.816;12.828;2023-06-26T08:23:31;16.45;;;15.75;;
30080;SDS011;16902;50.816;12.828;2023-06-26T08:28:33;16.42;;;15.63;;
30080;SDS011;16902;50.816;12.828;2023-06-26T08:33:35;16.58;;;15.57;;
30080;SDS011;16902;50.816;12.828;2023-06-26T08:38:36;16.15;;;15.45;;
30080;SDS011;16902;50.816;12.828;2023-06-26T08:43:38;15.50;;;14.80;;
30080;SDS011;16902;50.816;12.828;2023-06-26T08:48:40;17.77;;;16.58;;
30080;SDS011;16902;50.816;12.828;2023-06-26T08:53:58;16.40;;;15.60;;
30080;SDS011;16902;50.816;12.828;2023-06-26T08:59:01;16.25;;;15.50;;
30080;SDS011;16902;50.816;12.828;2023-06-26T09:04:03;15.85;;;15.05;;
30080;SDS011;16902;50.816;12.828;2023-06-26T09:09:05;16.67;;;15.88;;
30080;SDS011;16902;50.816;12.828;2023-06-26T09:14:07;16.38;;;15.57;;
30080;SDS011;16902;50.816;12.828;2023-06-26T09:19:11;16.10;;;15.40;;
30080;SDS011;16902;50.816;12.828;2023-06-26T09:24:13;15.73;;;14.93;;
30080;SDS011;16902;50.816;12.828;2023-06-26T09:29:16;15.95;;;15.15;;
30080;SDS011;16902;50.816;12.828;2023-06-26T09:34:18;15.48;;;14.77;;
30080;SDS011;16902;50.816;12.828;2023-06-26T09:39:21;15.20;;;14.50;;
30080;SDS011;16902;50.816;12.828;2023-06-26T09:44:23;16.08;;;15.27;;
30080;SDS011;16902;50.816;12.828;2023-06-26T09:49:25;16.42;;;15.63;;
30080;SDS011;16902;50.816;12.828;2023-06-26T09:54:27;15.52;;;14.82;;
30080;SDS011;16902;50.816;12.828;2023-06-26T09:59:31;16.50;;;15.70;;
30080;SDS011;16902;50.816;12.828;2023-06-26T10:04:34;16.77;;;15.88;;
30080;SDS011;16902;50.816;12.828;2023-06-26T10:09:38;16.20;;;15.45;;
30080;SDS011;16902;50.816;12.828;2023-06-26T10:14:43;16.48;;;15.68;;
30080;SDS011;16902;50.816;12.828;2023-06-26T10:19:48;16.30;;;15.60;;
30080;SDS011;16902;50.816;12.828;2023-06-26T10:24:52;16.25;;;15.50;;
30080;SDS011;16902;50.816;12.828;2023-06-26T10:30:00;16.20;;;15.50;;
30080;SDS011;16902;50.816;12.828;2023-06-26T10:35:06;17.20;;;16.30;;
30080;SDS011;16902;50.816;12.828;2023-06-26T10:40:09;16.73;;;15.93;;
30080;SDS011;16902;50.816;12.828;2023-06-26T10:45:15;16.77;;;15.98;;
30080;SDS011;16902;50.816;12.828;2023-06-26T10:50:25;16.42;;;15.73;;
30080;SDS011;16902;50.816;12.828;2023-06-26T10:55:29;17.00;;;16.20;;
30080;SDS011;16902;50.816;12.828;2023-06-26T11:00:31;16.80;;;16.00;;
30080;SDS011;16902;50.816;12.828;2023-06-26T11:05:33;17.15;;;16.25;;
30080;SDS011;16902;50.816;12.828;2023-06-26T11:10:51;16.50;;;15.60;;
30080;SDS011;16902;50.816;12.828;2023-06-26T11:15:55;17.27;;;16.48;;
30080;SDS011;16902;50.816;12.828;2023-06-26T11:21:10;17.08;;;16.27;;
30080;SDS011;16902;50.816;12.828;2023-06-26T11:36:27;16.60;;;15.75;;
30080;SDS011;16902;50.816;12.828;2023-06-26T11:41:30;16.02;;;15.32;;
30080;SDS011;16902;50.816;12.828;2023-06-26T11:46:36;16.55;;;15.75;;
30080;SDS011;16902;50.816;12.828;2023-06-26T11:51:38;15.88;;;15.18;;
30080;SDS011;16902;50.816;12.828;2023-06-26T11:56:42;16.10;;;15.40;;
30080;SDS011;16902;50.816;12.828;2023-06-26T12:01:44;16.10;;;15.40;;
30080;SDS011;16902;50.816;12.828;2023-06-26T12:06:47;15.85;;;15.15;;
30080;SDS011;16902;50.816;12.828;2023-06-26T12:11:54;15.80;;;15.10;;
30080;SDS011;16902;50.816;12.828;2023-06-26T12:17:03;15.88;;;15.18;;
30080;SDS011;16902;50.816;12.828;2023-06-26T12:22:07;15.88;;;15.18;;
30080;SDS011;16902;50.816;12.828;2023-06-26T12:27:09;16.20;;;15.48;;
30080;SDS011;16902;50.816;12.828;2023-06-26T12:32:12;15.57;;;14.88;;
30080;SDS011;16902;50.816;12.828;2023-06-26T12:37:15;16.15;;;15.35;;
30080;SDS011;16902;50.816;12.828;2023-06-26T12:42:18;16.30;;;15.57;;
30080;SDS011;16902;50.816;12.828;2023-06-26T12:47:25;16.25;;;15.55;;
30080;SDS011;16902;50.816;12.828;2023-06-26T12:52:29;15.93;;;15.23;;
30080;SDS011;16902;50.816;12.828;2023-06-26T12:57:30;16.80;;;15.90;;
30080;SDS011;16902;50.816;12.828;2023-06-26T13:02:32;16.50;;;15.75;;
30080;SDS011;16902;50.816;12.828;2023-06-26T13:07:34;16.35;;;15.45;;
30080;SDS011;16902;50.816;12.828;2023-06-26T13:12:36;16.38;;;15.68;;
30080;SDS011;16902;50.816;12.828;2023-06-26T13:17:37;16.10;;;15.38;;
30080;SDS011;16902;50.816;12.828;2023-06-26T13:22:39;16.13;;;15.43;;
30080;SDS011;16902;50.816;12.828;2023-06-26T13:27:41;16.85;;;16.05;;
30080;SDS011;16902;50.816;12.828;2023-06-26T13:32:43;16.50;;;15.80;;
30080;SDS011;16902;50.816;12.828;2023-06-26T13:37:45;16.75;;;15.95;;
30080;SDS011;16902;50.816;12.828;2023-06-26T13:42:48;16.45;;;15.75;;
30080;SDS011;16902;50.816;12.828;2023-06-26T13:47:50;16.98;;;16.17;;
30080;SDS011;16902;50.816;12.828;2023-06-26T13:52:52;16.40;;;15.70;;
30080;SDS011;16902;50.816;12.828;2023-06-26T13:57:53;16.75;;;16.05;;
30080;SDS011;16902;50.816;12.828;2023-06-26T14:02:57;17.15;;;16.35;;
30080;SDS011;16902;50.816;12.828;2023-06-26T14:07:59;17.00;;;16.20;;
30080;SDS011;16902;50.816;12.828;2023-06-26T14:13:00;17.00;;;16.27;;
30080;SDS011;16902;50.816;12.828;2023-06-26T14:18:03;16.92;;;16.13;;
30080;SDS011;16902;50.816;12.828;2023-06-26T14:23:05;16.85;;;16.05;;
30080;SDS011;16902;50.816;12.828;2023-06-26T14:28:07;16.95;;;16.25;;
30080;SDS011;16902;50.816;12.828;2023-06-26T14:33:09;17.00;;;16.10;;
30080;SDS011;16902;50.816;12.828;2023-06-26T14:38:11;16.83;;;16.13;;
30080;SDS011;16902;50.816;12.828;2023-06-26T14:43:13;16.67;;;15.98;;
30080;SDS011;16902;50.816;12.828;2023-06-26T14:48:15;16.98;;;16.27;;
30080;SDS011;16902;50.816;12.828;2023-06-26T14:53:17;17.65;;;16.85;;
30080;SDS011;16902;50.816;12.828;2023-06-26T14:58:19;17.95;;;17.15;;
30080;SDS011;16902;50.816;12.828;2023-06-26T15:03:20;17.88;;;16.98;;
30080;SDS011;16902;50.816;12.828;2023-06-26T15:08:22;17.17;;;16.38;;
30080;SDS011;16902;50.816;12.828;2023-06-26T15:13:24;18.13;;;17.30;;
30080;SDS011;16902;50.816;12.828;2023-06-26T15:18:25;19.38;;;18.30;;
30080;SDS011;16902;50.816;12.828;2023-06-26T15:23:27;19.27;;;18.27;;
30080;SDS011;16902;50.816;12.828;2023-06-26T15:28:29;18.77;;;17.85;;
30080;SDS011;16902;50.816;12.828;2023-06-26T15:33:31;17.13;;;16.33;;
30080;SDS011;16902;50.816;12.828;2023-06-26T15:38:33;16.75;;;15.75;;
30080;SDS011;16902;50.816;12.828;2023-06-26T15:43:34;15.30;;;14.50;;
30080;SDS011;16902;50.816;12.828;2023-06-26T15:48:36;15.18;;;14.38;;
30080;SDS011;16902;50.816;12.828;2023-06-26T15:53:42;15.15;;;14.38;;
30080;SDS011;16902;50.816;12.828;2023-06-26T15:58:44;17.98;;;16.98;;
30080;SDS011;16902;50.816;12.828;2023-06-26T16:03:48;17.83;;;16.92;;
30080;SDS011;16902;50.816;12.828;2023-06-26T16:08:49;17.52;;;16.73;;
30080;SDS011;16902;50.816;12.828;2023-06-26T16:13:53;17.77;;;16.88;;
30080;SDS011;16902;50.816;12.828;2023-06-26T16:18:56;17.65;;;16.63;;
30080;SDS011;16902;50.816;12.828;2023-06-26T16:23:58;18.25;;;17.27;;
30080;SDS011;16902;50.816;12.828;2023-06-26T16:29:01;17.05;;;16.17;;
30080;SDS011;16902;50.816;12.828;2023-06-26T16:34:03;18.13;;;17.23;;
30080;SDS011;16902;50.816;12.828;2023-06-26T16:39:05;16.80;;;15.93;;
30080;SDS011;16902;50.816;12.828;2023-06-26T16:44:06;16.80;;;16.00;;
30080;SDS011;16902;50.816;12.828;2023-06-26T16:49:08;16.83;;;15.93;;
30080;SDS011;16902;50.816;12.828;2023-06-26T16:54:10;17.25;;;16.35;;
30080;SDS011;16902;50.816;12.828;2023-06-26T16:59:11;16.85;;;15.95;;
30080;SDS011;16902;50.816;12.828;2023-06-26T17:04:13;17.00;;;16.20;;
30080;SDS011;16902;50.816;12.828;2023-06-26T17:09:15;16.45;;;15.65;;
30080;SDS011;16902;50.816;12.828;2023-06-26T17:14:16;15.48;;;14.77;;
30080;SDS011;16902;50.816;12.828;2023-06-26T17:19:18;15.73;;;14.98;;
30080;SDS011;16902;50.816;12.828;2023-06-26T17:24:21;16.10;;;15.30;;
30080;SDS011;16902;50.816;12.828;2023-06-26T17:29:22;14.57;;;13.80;;
30080;SDS011;16902;50.816;12.828;2023-06-26T17:34:24;14.70;;;13.90;;
30080;SDS011;16902;50.816;12.828;2023-06-26T17:39:26;15.52;;;14.73;;
30080;SDS011;16902;50.816;12.828;2023-06-26T17:44:27;14.85;;;14.15;;
30080;SDS011;16902;50.816;12.828;2023-06-26T17:49:30;15.50;;;14.60;;
30080;SDS011;16902;50.816;12.828;2023-06-26T17:54:32;15.27;;;14.45;;
30080;SDS011;16902;50.816;12.828;2023-06-26T17:59:33;14.27;;;13.52;;
30080;SDS011;16902;50.816;12.828;2023-06-26T18:04:35;14.48;;;13.68;;
30080;SDS011;16902;50.816;12.828;2023-06-26T18:09:37;13.35;;;12.70;;
30080;SDS011;16902;50.816;12.828;2023-06-26T18:14:39;13.40;;;12.60;;
30080;SDS011;16902;50.816;12.828;2023-06-26T18:19:41;14.35;;;13.65;;
30080;SDS011;16902;50.816;12.828;2023-06-26T18:24:42;13.75;;;13.05;;
30080;SDS011;16902;50.816;12.828;2023-06-26T18:29:44;13.50;;;12.80;;
30080;SDS011;16902;50.816;12.828;2023-06-26T18:34:46;13.50;;;12.60;;
30080;SDS011;16902;50.816;12.828;2023-06-26T18:39:47;13.60;;;12.90;;
30080;SDS011;16902;50.816;12.828;2023-06-26T18:44:49;13.98;;;13.15;;
30080;SDS011;16902;50.816;12.828;2023-06-26T18:49:51;13.90;;;12.85;;
30080;SDS011;16902;50.816;12.828;2023-06-26T18:54:53;12.95;;;12.35;;
30080;SDS011;16902;50.816;12.828;2023-06-26T18:59:55;13.07;;;12.38;;
30080;SDS011;16902;50.816;12.828;2023-06-26T19:04:56;13.15;;;12.45;;
30080;SDS011;16902;50.816;12.828;2023-06-26T19:09:58;15.20;;;11.88;;
30080;SDS011;16902;50.816;12.828;2023-06-26T19:15:01;12.23;;;11.63;;
30080;SDS011;16902;50.816;12.828;2023-06-26T19:20:03;12.05;;;11.35;;
30080;SDS011;16902;50.816;12.828;2023-06-26T19:25:06;11.93;;;11.23;;
30080;SDS011;16902;50.816;12.828;2023-06-26T19:30:08;11.05;;;10.55;;
30080;SDS011;16902;50.816;12.828;2023-06-26T19:35:10;11.48;;;10.93;;
30080;SDS011;16902;50.816;12.828;2023-06-26T19:40:12;11.05;;;10.45;;
30080;SDS011;16902;50.816;12.828;2023-06-26T19:45:14;11.70;;;11.10;;
30080;SDS011;16902;50.816;12.828;2023-06-26T19:50:15;11.55;;;11.02;;
30080;SDS011;16902;50.816;12.828;2023-06-26T19:55:17;12.10;;;11.40;;
30080;SDS011;16902;50.816;12.828;2023-06-26T20:00:19;11.80;;;11.00;;
30080;SDS011;16902;50.816;12.828;2023-06-26T20:05:21;10.75;;;10.25;;
30080;SDS011;16902;50.816;12.828;2023-06-26T20:10:22;11.40;;;10.75;;
30080;SDS011;16902;50.816;12.828;2023-06-26T20:15:24;11.30;;;10.60;;
30080;SDS011;16902;50.816;12.828;2023-06-26T20:20:26;11.57;;;10.98;;
30080;SDS011;16902;50.816;12.828;2023-06-26T20:25:27;10.90;;;10.40;;
30080;SDS011;16902;50.816;12.828;2023-06-26T20:30:29;11.02;;;10.50;;
30080;SDS011;16902;50.816;12.828;2023-06-26T20:35:31;11.05;;;10.55;;
30080;SDS011;16902;50.816;12.828;2023-06-26T20:40:33;10.93;;;10.43;;
30080;SDS011;16902;50.816;12.828;2023-06-26T20:45:35;12.18;;;11.57;;
30080;SDS011;16902;50.816;12.828;2023-06-26T20:50:37;11.60;;;11.00;;
30080;SDS011;16902;50.816;12.828;2023-06-26T20:55:39;11.30;;;10.73;;
30080;SDS011;16902;50.816;12.828;2023-06-26T21:00:41;11.63;;;10.93;;
30080;SDS011;16902;50.816;12.828;2023-06-26T21:05:43;11.27;;;10.68;;
30080;SDS011;16902;50.816;12.828;2023-06-26T21:10:45;10.98;;;10.38;;
30080;SDS011;16902;50.816;12.828;2023-06-26T21:15:47;11.50;;;10.90;;
30080;SDS011;16902;50.816;12.828;2023-06-26T21:20:48;11.70;;;11.15;;
30080;SDS011;16902;50.816;12.828;2023-06-26T21:25:50;12.05;;;11.40;;
30080;SDS011;16902;50.816;12.828;2023-06-26T21:30:52;11.77;;;11.15;;
30080;SDS011;16902;50.816;12.828;2023-06-26T21:35:53;12.05;;;11.55;;
30080;SDS011;16902;50.816;12.828;2023-06-26T21:40:55;12.85;;;12.35;;
30080;SDS011;16902;50.816;12.828;2023-06-26T21:45:57;12.13;;;11.63;;
30080;SDS011;16902;50.816;12.828;2023-06-26T21:50:59;13.30;;;12.70;;
30080;SDS011;16902;50.816;12.828;2023-06-26T21:56:01;12.65;;;12.15;;
30080;SDS011;16902;50.816;12.828;2023-06-26T22:01:02;13.60;;;13.00;;
30080;SDS011;16902;50.816;12.828;2023-06-26T22:06:04;13.45;;;12.85;;
30080;SDS011;16902;50.816;12.828;2023-06-26T22:11:06;13.63;;;13.02;;
30080;SDS011;16902;50.816;12.828;2023-06-26T22:16:08;13.45;;;12.95;;
30080;SDS011;16902;50.816;12.828;2023-06-26T22:21:10;13.75;;;13.23;;
30080;SDS011;16902;50.816;12.828;2023-06-26T22:26:12;12.93;;;12.43;;
30080;SDS011;16902;50.816;12.828;2023-06-26T22:31:14;13.15;;;12.60;;
30080;SDS011;16902;50.816;12.828;2023-06-26T22:36:16;13.43;;;12.88;;
30080;SDS011;16902;50.816;12.828;2023-06-26T22:41:18;13.43;;;12.93;;
30080;SDS011;16902;50.816;12.828;2023-06-26T22:46:20;13.60;;;13.00;;
30080;SDS011;16902;50.816;12.828;2023-06-26T22:51:21;13.00;;;12.50;;
30080;SDS011;16902;50.816;12.828;2023-06-26T22:56:23;13.38;;;12.80;;
30080;SDS011;16902;50.816;12.828;2023-06-26T23:01:27;13.52;;;13.02;;
30080;SDS011;16902;50.816;12.828;2023-06-26T23:06:29;13.32;;;12.82;;
30080;SDS011;16902;50.816;12.828;2023-06-26T23:11:31;13.63;;;13.02;;
30080;SDS011;16902;50.816;12.828;2023-06-26T23:16:33;13.02;;;12.52;;
30080;SDS011;16902;50.816;12.828;2023-06-26T23:21:35;13.38;;;12.73;;
30080;SDS011;16902;50.816;12.828;2023-06-26T23:26:37;13.43;;;12.82;;
30080;SDS011;16902;50.816;12.828;2023-06-26T23:31:39;12.57;;;11.98;;
30080;SDS011;16902;50.816;12.828;2023-06-26T23:36:41;13.18;;;12.68;;
30080;SDS011;16902;50.816;12.828;2023-06-26T23:41:43;12.75;;;12.23;;
30080;SDS011;16902;50.816;12.828;2023-06-26T23:46:45;13.15;;;12.55;;
30080;SDS011;16902;50.816;12.828;2023-06-26T23:51:47;12.80;;;12.30;;
30080;SDS011;16902;50.816;12.828;2023-06-26T23:56:49;12.52;;;12.02;;
